sensor_id;sensor_type;location;lat;lon;timestamp;P1;durP1;ratioP1;P2;durP2;ratioP2
36925;SDS011;22842;48.610;11.612;2022-11-23T00:01:33;13.57;;;6.05;;
36925;SDS011;22842;48.610;11.612;2022-11-23T00:04:02;10.32;;;6.05;;
36925;SDS011;22842;48.610;11.612;2022-11-23T00:06:31;12.27;;;6.72;;
36925;SDS011;22842;48.610;11.612;2022-11-23T00:08:58;13.82;;;6.78;;
36925;SDS011;22842;48.610;11.612;2022-11-23T00:11:26;12.80;;;6.78;;
36925;SDS011;22842;48.610;11.612;2022-11-23T00:13:54;14.18;;;7.38;;
36925;SDS011;22842;48.610;11.612;2022-11-23T00:16:22;14.65;;;6.95;;
36925;SDS011;22842;48.610;11.612;2022-11-23T00:18:51;10.48;;;6.90;;
36925;SDS011;22842;48.610;11.612;2022-11-23T00:21:19;13.32;;;7.88;;
36925;SDS011;22842;48.610;11.612;2022-11-23T00:23:47;14.00;;;6.80;;
36925;SDS011;22842;48.610;11.612;2022-11-23T00:26:16;13.10;;;6.50;;
36925;SDS011;22842;48.610;11.612;2022-11-23T00:28:44;18.88;;;7.43;;
36925;SDS011;22842;48.610;11.612;2022-11-23T00:31:13;10.60;;;5.65;;
36925;SDS011;22842;48.610;11.612;2022-11-23T00:33:47;9.82;;;5.53;;
36925;SDS011;22842;48.610;11.612;2022-11-23T00:36:15;13.82;;;6.15;;
36925;SDS011;22842;48.610;11.612;2022-11-23T00:38:43;8.80;;;4.97;;
36925;SDS011;22842;48.610;11.612;2022-11-23T00:41:12;12.13;;;5.68;;
36925;SDS011;22842;48.610;11.612;2022-11-23T00:43:40;10.00;;;5.22;;
36925;SDS011;22842;48.610;11.612;2022-11-23T00:46:16;10.38;;;5.68;;
36925;SDS011;22842;48.610;11.612;2022-11-23T00:48:45;10.75;;;5.32;;
36925;SDS011;22842;48.610;11.612;2022-11-23T00:51:14;9.65;;;4.90;;
36925;SDS011;22842;48.610;11.612;2022-11-23T00:53:42;11.32;;;5.10;;
36925;SDS011;22842;48.610;11.612;2022-11-23T00:56:10;16.77;;;5.13;;
36925;SDS011;22842;48.610;11.612;2022-11-23T00:58:38;7.47;;;4.97;;
36925;SDS011;22842;48.610;11.612;2022-11-23T01:01:08;11.68;;;4.97;;
36925;SDS011;22842;48.610;11.612;2022-11-23T01:03:37;11.43;;;4.75;;
36925;SDS011;22842;48.610;11.612;2022-11-23T01:06:06;9.90;;;4.85;;
36925;SDS011;22842;48.610;11.612;2022-11-23T01:08:34;8.85;;;4.50;;
36925;SDS011;22842;48.610;11.612;2022-11-23T01:11:02;8.27;;;5.13;;
36925;SDS011;22842;48.610;11.612;2022-11-23T01:13:30;10.43;;;4.70;;
36925;SDS011;22842;48.610;11.612;2022-11-23T01:15:58;11.88;;;5.47;;
36925;SDS011;22842;48.610;11.612;2022-11-23T01:18:27;9.05;;;4.45;;
36925;SDS011;22842;48.610;11.612;2022-11-23T01:20:55;12.27;;;5.10;;
36925;SDS011;22842;48.610;11.612;2022-11-23T01:23:22;12.75;;;5.78;;
36925;SDS011;22842;48.610;11.612;2022-11-23T01:25:50;13.90;;;4.88;;
36925;SDS011;22842;48.610;11.612;2022-11-23T01:28:22;7.90;;;4.05;;
36925;SDS011;22842;48.610;11.612;2022-11-23T01:30:50;8.30;;;4.07;;
36925;SDS011;22842;48.610;11.612;2022-11-23T01:33:17;5.90;;;3.97;;
36925;SDS011;22842;48.610;11.612;2022-11-23T01:35:45;8.88;;;4.22;;
36925;SDS011;22842;48.610;11.612;2022-11-23T01:38:13;7.85;;;4.38;;
36925;SDS011;22842;48.610;11.612;2022-11-23T01:40:43;9.40;;;4.40;;
36925;SDS011;22842;48.610;11.612;2022-11-23T01:43:15;8.30;;;3.85;;
36925;SDS011;22842;48.610;11.612;2022-11-23T01:46:04;9.15;;;4.65;;
36925;SDS011;22842;48.610;11.612;2022-11-23T01:50:59;6.82;;;3.70;;
36925;SDS011;22842;48.610;11.612;2022-11-23T01:53:27;7.65;;;3.95;;
36925;SDS011;22842;48.610;11.612;2022-11-23T01:55:57;7.95;;;3.83;;
36925;SDS011;22842;48.610;11.612;2022-11-23T01:58:26;6.50;;;3.83;;
36925;SDS011;22842;48.610;11.612;2022-11-23T02:00:55;9.02;;;4.03;;
36925;SDS011;22842;48.610;11.612;2022-11-23T02:03:23;14.20;;;4.45;;
36925;SDS011;22842;48.610;11.612;2022-11-23T02:05:53;5.60;;;3.80;;
36925;SDS011;22842;48.610;11.612;2022-11-23T02:08:25;8.07;;;4.15;;
36925;SDS011;22842;48.610;11.612;2022-11-23T02:10:57;8.10;;;4.20;;
36925;SDS011;22842;48.610;11.612;2022-11-23T02:13:26;6.82;;;4.00;;
36925;SDS011;22842;48.610;11.612;2022-11-23T02:15:55;7.43;;;4.30;;
36925;SDS011;22842;48.610;11.612;2022-11-23T02:18:24;7.60;;;4.07;;
36925;SDS011;22842;48.610;11.612;2022-11-23T02:20:54;8.90;;;4.38;;
36925;SDS011;22842;48.610;11.612;2022-11-23T02:23:36;8.10;;;3.97;;
36925;SDS011;22842;48.610;11.612;2022-11-23T02:26:15;6.72;;;3.60;;
36925;SDS011;22842;48.610;11.612;2022-11-23T02:28:45;8.75;;;3.58;;
36925;SDS011;22842;48.610;11.612;2022-11-23T02:31:14;6.55;;;3.90;;
36925;SDS011;22842;48.610;11.612;2022-11-23T02:33:41;6.85;;;3.25;;
36925;SDS011;22842;48.610;11.612;2022-11-23T02:38:55;6.45;;;4.00;;
36925;SDS011;22842;48.610;11.612;2022-11-23T02:41:25;5.72;;;3.42;;
36925;SDS011;22842;48.610;11.612;2022-11-23T02:43:53;8.13;;;3.90;;
36925;SDS011;22842;48.610;11.612;2022-11-23T02:46:22;9.10;;;3.85;;
36925;SDS011;22842;48.610;11.612;2022-11-23T02:48:50;10.18;;;4.07;;
36925;SDS011;22842;48.610;11.612;2022-11-23T02:51:17;6.25;;;3.55;;
36925;SDS011;22842;48.610;11.612;2022-11-23T02:53:45;7.40;;;4.03;;
36925;SDS011;22842;48.610;11.612;2022-11-23T02:56:13;6.82;;;3.97;;
36925;SDS011;22842;48.610;11.612;2022-11-23T02:58:40;6.65;;;4.07;;
36925;SDS011;22842;48.610;11.612;2022-11-23T03:01:08;7.75;;;3.63;;
36925;SDS011;22842;48.610;11.612;2022-11-23T03:03:36;5.45;;;3.33;;
36925;SDS011;22842;48.610;11.612;2022-11-23T03:06:03;8.93;;;3.75;;
36925;SDS011;22842;48.610;11.612;2022-11-23T03:08:31;7.05;;;3.95;;
36925;SDS011;22842;48.610;11.612;2022-11-23T03:10:59;6.47;;;3.65;;
36925;SDS011;22842;48.610;11.612;2022-11-23T03:13:27;9.48;;;3.90;;
36925;SDS011;22842;48.610;11.612;2022-11-23T03:15:55;9.63;;;3.65;;
36925;SDS011;22842;48.610;11.612;2022-11-23T03:18:24;8.07;;;3.40;;
36925;SDS011;22842;48.610;11.612;2022-11-23T03:20:51;6.40;;;3.42;;
36925;SDS011;22842;48.610;11.612;2022-11-23T03:23:19;5.60;;;3.72;;
36925;SDS011;22842;48.610;11.612;2022-11-23T03:25:53;7.35;;;3.45;;
36925;SDS011;22842;48.610;11.612;2022-11-23T03:28:21;5.65;;;3.58;;
36925;SDS011;22842;48.610;11.612;2022-11-23T03:30:50;8.38;;;3.38;;
36925;SDS011;22842;48.610;11.612;2022-11-23T03:33:17;4.53;;;3.55;;
36925;SDS011;22842;48.610;11.612;2022-11-23T03:35:45;9.65;;;4.40;;
36925;SDS011;22842;48.610;11.612;2022-11-23T03:38:13;6.10;;;3.88;;
36925;SDS011;22842;48.610;11.612;2022-11-23T03:40:42;8.32;;;3.88;;
36925;SDS011;22842;48.610;11.612;2022-11-23T03:43:11;6.38;;;3.05;;
36925;SDS011;22842;48.610;11.612;2022-11-23T03:45:39;6.72;;;3.35;;
36925;SDS011;22842;48.610;11.612;2022-11-23T03:48:07;5.28;;;3.22;;
36925;SDS011;22842;48.610;11.612;2022-11-23T03:50:35;5.57;;;3.60;;
36925;SDS011;22842;48.610;11.612;2022-11-23T03:53:04;7.60;;;2.80;;
36925;SDS011;22842;48.610;11.612;2022-11-23T03:55:32;5.80;;;2.97;;
36925;SDS011;22842;48.610;11.612;2022-11-23T03:58:00;4.93;;;2.53;;
36925;SDS011;22842;48.610;11.612;2022-11-23T04:00:28;4.53;;;2.40;;
36925;SDS011;22842;48.610;11.612;2022-11-23T04:02:56;6.18;;;2.35;;
36925;SDS011;22842;48.610;11.612;2022-11-23T04:05:23;4.85;;;2.72;;
36925;SDS011;22842;48.610;11.612;2022-11-23T04:07:53;4.88;;;2.45;;
36925;SDS011;22842;48.610;11.612;2022-11-23T04:10:20;9.23;;;2.65;;
36925;SDS011;22842;48.610;11.612;2022-11-23T04:12:51;5.78;;;2.55;;
36925;SDS011;22842;48.610;11.612;2022-11-23T04:15:19;7.53;;;2.80;;
36925;SDS011;22842;48.610;11.612;2022-11-23T04:17:47;6.95;;;3.58;;
36925;SDS011;22842;48.610;11.612;2022-11-23T04:20:14;5.60;;;3.03;;
36925;SDS011;22842;48.610;11.612;2022-11-23T04:22:42;8.02;;;3.17;;
36925;SDS011;22842;48.610;11.612;2022-11-23T04:25:09;7.50;;;3.55;;
36925;SDS011;22842;48.610;11.612;2022-11-23T04:27:37;5.30;;;3.20;;
36925;SDS011;22842;48.610;11.612;2022-11-23T04:30:05;9.52;;;3.65;;
36925;SDS011;22842;48.610;11.612;2022-11-23T04:32:33;4.93;;;3.30;;
36925;SDS011;22842;48.610;11.612;2022-11-23T04:35:00;7.85;;;3.35;;
36925;SDS011;22842;48.610;11.612;2022-11-23T04:37:28;10.90;;;3.88;;
36925;SDS011;22842;48.610;11.612;2022-11-23T04:39:55;5.85;;;3.40;;
36925;SDS011;22842;48.610;11.612;2022-11-23T04:42:23;5.25;;;3.22;;
36925;SDS011;22842;48.610;11.612;2022-11-23T04:44:50;6.10;;;3.08;;
36925;SDS011;22842;48.610;11.612;2022-11-23T04:47:18;6.50;;;3.17;;
36925;SDS011;22842;48.610;11.612;2022-11-23T04:49:45;5.15;;;3.10;;
36925;SDS011;22842;48.610;11.612;2022-11-23T04:52:13;11.80;;;2.83;;
36925;SDS011;22842;48.610;11.612;2022-11-23T04:54:41;5.10;;;3.22;;
36925;SDS011;22842;48.610;11.612;2022-11-23T04:57:09;8.73;;;2.90;;
36925;SDS011;22842;48.610;11.612;2022-11-23T04:59:36;11.68;;;3.38;;
36925;SDS011;22842;48.610;11.612;2022-11-23T05:02:04;4.45;;;2.88;;
36925;SDS011;22842;48.610;11.612;2022-11-23T05:04:32;7.55;;;2.90;;
36925;SDS011;22842;48.610;11.612;2022-11-23T05:07:00;7.60;;;2.97;;
36925;SDS011;22842;48.610;11.612;2022-11-23T05:09:27;7.38;;;3.35;;
36925;SDS011;22842;48.610;11.612;2022-11-23T05:11:55;5.43;;;3.28;;
36925;SDS011;22842;48.610;11.612;2022-11-23T05:14:23;7.30;;;3.40;;
36925;SDS011;22842;48.610;11.612;2022-11-23T05:16:51;7.65;;;2.95;;
36925;SDS011;22842;48.610;11.612;2022-11-23T05:19:18;5.00;;;3.10;;
36925;SDS011;22842;48.610;11.612;2022-11-23T05:21:46;7.70;;;3.40;;
36925;SDS011;22842;48.610;11.612;2022-11-23T05:24:14;6.03;;;3.13;;
36925;SDS011;22842;48.610;11.612;2022-11-23T05:26:41;6.22;;;3.25;;
36925;SDS011;22842;48.610;11.612;2022-11-23T05:29:09;5.70;;;2.90;;
36925;SDS011;22842;48.610;11.612;2022-11-23T05:31:37;6.03;;;3.00;;
36925;SDS011;22842;48.610;11.612;2022-11-23T05:34:04;5.63;;;3.08;;
36925;SDS011;22842;48.610;11.612;2022-11-23T05:36:32;7.40;;;3.00;;
36925;SDS011;22842;48.610;11.612;2022-11-23T05:39:04;7.10;;;3.40;;
36925;SDS011;22842;48.610;11.612;2022-11-23T05:41:32;4.93;;;3.08;;
36925;SDS011;22842;48.610;11.612;2022-11-23T05:44:00;7.20;;;3.20;;
36925;SDS011;22842;48.610;11.612;2022-11-23T05:46:27;9.02;;;4.60;;
36925;SDS011;22842;48.610;11.612;2022-11-23T05:48:55;11.90;;;5.82;;
36925;SDS011;22842;48.610;11.612;2022-11-23T05:51:23;10.90;;;4.80;;
36925;SDS011;22842;48.610;11.612;2022-11-23T05:53:50;10.50;;;4.65;;
36925;SDS011;22842;48.610;11.612;2022-11-23T05:56:18;7.95;;;4.93;;
36925;SDS011;22842;48.610;11.612;2022-11-23T05:58:46;9.88;;;4.80;;
36925;SDS011;22842;48.610;11.612;2022-11-23T06:01:13;7.95;;;5.53;;
36925;SDS011;22842;48.610;11.612;2022-11-23T06:03:41;11.98;;;4.50;;
36925;SDS011;22842;48.610;11.612;2022-11-23T06:06:09;6.30;;;3.58;;
36925;SDS011;22842;48.610;11.612;2022-11-23T06:08:37;7.97;;;4.35;;
36925;SDS011;22842;48.610;11.612;2022-11-23T06:11:04;6.75;;;4.70;;
36925;SDS011;22842;48.610;11.612;2022-11-23T06:13:32;9.57;;;6.40;;
36925;SDS011;22842;48.610;11.612;2022-11-23T06:16:00;10.68;;;4.53;;
36925;SDS011;22842;48.610;11.612;2022-11-23T06:18:28;11.02;;;4.55;;
36925;SDS011;22842;48.610;11.612;2022-11-23T06:20:59;8.60;;;4.20;;
36925;SDS011;22842;48.610;11.612;2022-11-23T06:23:27;11.70;;;5.00;;
36925;SDS011;22842;48.610;11.612;2022-11-23T06:25:58;8.63;;;4.40;;
36925;SDS011;22842;48.610;11.612;2022-11-23T06:28:26;9.88;;;5.10;;
36925;SDS011;22842;48.610;11.612;2022-11-23T06:30:55;6.47;;;4.00;;
36925;SDS011;22842;48.610;11.612;2022-11-23T06:33:22;5.75;;;4.07;;
36925;SDS011;22842;48.610;11.612;2022-11-23T06:35:51;6.47;;;4.30;;
36925;SDS011;22842;48.610;11.612;2022-11-23T06:38:19;11.43;;;5.03;;
36925;SDS011;22842;48.610;11.612;2022-11-23T06:40:46;8.85;;;4.63;;
36925;SDS011;22842;48.610;11.612;2022-11-23T06:43:14;7.22;;;4.43;;
36925;SDS011;22842;48.610;11.612;2022-11-23T06:45:41;10.80;;;4.70;;
36925;SDS011;22842;48.610;11.612;2022-11-23T06:48:09;10.52;;;4.75;;
36925;SDS011;22842;48.610;11.612;2022-11-23T06:50:37;6.38;;;3.88;;
36925;SDS011;22842;48.610;11.612;2022-11-23T06:53:04;9.10;;;4.88;;
36925;SDS011;22842;48.610;11.612;2022-11-23T06:55:32;6.38;;;3.80;;
36925;SDS011;22842;48.610;11.612;2022-11-23T06:58:00;5.93;;;4.07;;
36925;SDS011;22842;48.610;11.612;2022-11-23T07:00:28;8.98;;;4.78;;
36925;SDS011;22842;48.610;11.612;2022-11-23T07:02:55;12.40;;;4.32;;
36925;SDS011;22842;48.610;11.612;2022-11-23T07:05:23;7.55;;;4.68;;
36925;SDS011;22842;48.610;11.612;2022-11-23T07:07:51;8.32;;;5.03;;
36925;SDS011;22842;48.610;11.612;2022-11-23T07:10:19;7.20;;;5.13;;
36925;SDS011;22842;48.610;11.612;2022-11-23T07:12:46;7.40;;;5.28;;
36925;SDS011;22842;48.610;11.612;2022-11-23T07:15:14;7.32;;;5.25;;
36925;SDS011;22842;48.610;11.612;2022-11-23T07:17:42;11.60;;;5.55;;
36925;SDS011;22842;48.610;11.612;2022-11-23T07:20:10;11.80;;;5.70;;
36925;SDS011;22842;48.610;11.612;2022-11-23T07:22:39;9.13;;;6.15;;
36925;SDS011;22842;48.610;11.612;2022-11-23T07:25:07;13.05;;;6.00;;
36925;SDS011;22842;48.610;11.612;2022-11-23T07:27:35;15.07;;;6.40;;
36925;SDS011;22842;48.610;11.612;2022-11-23T07:30:02;9.93;;;5.55;;
36925;SDS011;22842;48.610;11.612;2022-11-23T07:32:30;9.13;;;5.57;;
36925;SDS011;22842;48.610;11.612;2022-11-23T07:34:58;10.85;;;5.55;;
36925;SDS011;22842;48.610;11.612;2022-11-23T07:37:26;15.60;;;7.15;;
36925;SDS011;22842;48.610;11.612;2022-11-23T07:39:54;15.00;;;6.93;;
36925;SDS011;22842;48.610;11.612;2022-11-23T07:42:23;10.73;;;6.53;;
36925;SDS011;22842;48.610;11.612;2022-11-23T07:47:35;16.90;;;6.07;;
36925;SDS011;22842;48.610;11.612;2022-11-23T07:50:07;13.23;;;5.85;;
36925;SDS011;22842;48.610;11.612;2022-11-23T07:52:35;11.05;;;4.75;;
36925;SDS011;22842;48.610;11.612;2022-11-23T07:55:03;9.07;;;5.20;;
36925;SDS011;22842;48.610;11.612;2022-11-23T07:57:31;7.55;;;4.75;;
36925;SDS011;22842;48.610;11.612;2022-11-23T07:59:58;9.00;;;5.03;;
36925;SDS011;22842;48.610;11.612;2022-11-23T08:02:26;9.40;;;5.10;;
36925;SDS011;22842;48.610;11.612;2022-11-23T08:04:53;6.35;;;4.70;;
36925;SDS011;22842;48.610;11.612;2022-11-23T08:07:21;13.13;;;5.03;;
36925;SDS011;22842;48.610;11.612;2022-11-23T08:09:49;10.32;;;5.55;;
36925;SDS011;22842;48.610;11.612;2022-11-23T08:12:18;16.25;;;6.20;;
36925;SDS011;22842;48.610;11.612;2022-11-23T08:14:45;16.38;;;8.75;;
36925;SDS011;22842;48.610;11.612;2022-11-23T08:17:13;13.32;;;6.70;;
36925;SDS011;22842;48.610;11.612;2022-11-23T08:19:41;14.20;;;7.63;;
36925;SDS011;22842;48.610;11.612;2022-11-23T08:22:09;10.27;;;6.32;;
36925;SDS011;22842;48.610;11.612;2022-11-23T08:24:41;16.17;;;7.18;;
36925;SDS011;22842;48.610;11.612;2022-11-23T08:27:08;11.98;;;6.78;;
36925;SDS011;22842;48.610;11.612;2022-11-23T08:29:37;16.00;;;7.53;;
36925;SDS011;22842;48.610;11.612;2022-11-23T08:32:05;16.13;;;8.93;;
36925;SDS011;22842;48.610;11.612;2022-11-23T08:34:32;19.55;;;9.90;;
36925;SDS011;22842;48.610;11.612;2022-11-23T08:37:04;18.27;;;9.45;;
36925;SDS011;22842;48.610;11.612;2022-11-23T08:39:31;18.15;;;9.65;;
36925;SDS011;22842;48.610;11.612;2022-11-23T08:41:59;15.18;;;8.70;;
36925;SDS011;22842;48.610;11.612;2022-11-23T08:44:27;14.73;;;8.88;;
36925;SDS011;22842;48.610;11.612;2022-11-23T08:46:55;13.23;;;8.25;;
36925;SDS011;22842;48.610;11.612;2022-11-23T08:49:22;14.50;;;7.82;;
36925;SDS011;22842;48.610;11.612;2022-11-23T08:51:50;14.10;;;8.48;;
36925;SDS011;22842;48.610;11.612;2022-11-23T08:54:17;17.55;;;9.85;;
36925;SDS011;22842;48.610;11.612;2022-11-23T08:56:45;16.05;;;8.20;;
36925;SDS011;22842;48.610;11.612;2022-11-23T08:59:13;12.73;;;8.20;;
36925;SDS011;22842;48.610;11.612;2022-11-23T09:01:42;17.15;;;11.18;;
36925;SDS011;22842;48.610;11.612;2022-11-23T09:04:10;20.23;;;11.38;;
36925;SDS011;22842;48.610;11.612;2022-11-23T09:06:45;28.38;;;15.85;;
36925;SDS011;22842;48.610;11.612;2022-11-23T09:09:13;11.52;;;8.05;;
36925;SDS011;22842;48.610;11.612;2022-11-23T09:11:40;14.65;;;8.80;;
36925;SDS011;22842;48.610;11.612;2022-11-23T09:14:08;14.82;;;9.20;;
36925;SDS011;22842;48.610;11.612;2022-11-23T09:16:36;15.18;;;7.88;;
36925;SDS011;22842;48.610;11.612;2022-11-23T09:19:03;18.67;;;7.50;;
36925;SDS011;22842;48.610;11.612;2022-11-23T09:21:32;12.48;;;7.70;;
36925;SDS011;22842;48.610;11.612;2022-11-23T09:24:01;12.93;;;6.60;;
36925;SDS011;22842;48.610;11.612;2022-11-23T09:26:28;17.38;;;6.80;;
36925;SDS011;22842;48.610;11.612;2022-11-23T09:28:59;10.57;;;5.72;;
36925;SDS011;22842;48.610;11.612;2022-11-23T09:31:28;12.50;;;6.80;;
36925;SDS011;22842;48.610;11.612;2022-11-23T09:33:56;9.77;;;5.10;;
36925;SDS011;22842;48.610;11.612;2022-11-23T09:36:24;8.52;;;5.85;;
36925;SDS011;22842;48.610;11.612;2022-11-23T09:38:51;8.70;;;5.63;;
36925;SDS011;22842;48.610;11.612;2022-11-23T09:49:15;7.25;;;4.80;;
36925;SDS011;22842;48.610;11.612;2022-11-23T09:51:43;8.30;;;4.32;;
36925;SDS011;22842;48.610;11.612;2022-11-23T09:56:40;9.32;;;4.45;;
36925;SDS011;22842;48.610;11.612;2022-11-23T09:59:14;15.45;;;5.75;;
36925;SDS011;22842;48.610;11.612;2022-11-23T10:01:44;8.15;;;4.78;;
36925;SDS011;22842;48.610;11.612;2022-11-23T10:04:14;8.80;;;4.55;;
36925;SDS011;22842;48.610;11.612;2022-11-23T10:06:43;25.08;;;9.10;;
36925;SDS011;22842;48.610;11.612;2022-11-23T10:16:58;17.08;;;10.68;;
36925;SDS011;22842;48.610;11.612;2022-11-23T10:19:32;8.10;;;5.20;;
36925;SDS011;22842;48.610;11.612;2022-11-23T10:22:10;10.73;;;5.35;;
36925;SDS011;22842;48.610;11.612;2022-11-23T10:24:49;9.15;;;4.10;;
36925;SDS011;22842;48.610;11.612;2022-11-23T10:27:18;13.25;;;4.38;;
36925;SDS011;22842;48.610;11.612;2022-11-23T10:29:47;8.05;;;3.78;;
36925;SDS011;22842;48.610;11.612;2022-11-23T10:37:32;6.75;;;3.50;;
36925;SDS011;22842;48.610;11.612;2022-11-23T10:40:00;5.63;;;3.40;;
36925;SDS011;22842;48.610;11.612;2022-11-23T10:42:37;6.68;;;3.05;;
36925;SDS011;22842;48.610;11.612;2022-11-23T10:45:24;8.52;;;3.17;;
36925;SDS011;22842;48.610;11.612;2022-11-23T10:47:53;7.53;;;3.00;;
36925;SDS011;22842;48.610;11.612;2022-11-23T10:50:23;4.85;;;3.05;;
36925;SDS011;22842;48.610;11.612;2022-11-23T10:52:55;6.03;;;2.75;;
36925;SDS011;22842;48.610;11.612;2022-11-23T10:55:27;7.40;;;2.33;;
36925;SDS011;22842;48.610;11.612;2022-11-23T10:57:56;10.48;;;2.95;;
36925;SDS011;22842;48.610;11.612;2022-11-23T11:00:24;5.00;;;2.28;;
36925;SDS011;22842;48.610;11.612;2022-11-23T11:02:56;5.72;;;2.03;;
36925;SDS011;22842;48.610;11.612;2022-11-23T11:08:19;7.80;;;2.30;;
36925;SDS011;22842;48.610;11.612;2022-11-23T11:13:28;8.80;;;2.90;;
36925;SDS011;22842;48.610;11.612;2022-11-23T11:15:59;6.55;;;2.78;;
36925;SDS011;22842;48.610;11.612;2022-11-23T11:18:28;10.13;;;2.97;;
36925;SDS011;22842;48.610;11.612;2022-11-23T11:21:39;7.07;;;2.70;;
36925;SDS011;22842;48.610;11.612;2022-11-23T11:23:51;5.78;;;2.90;;
36925;SDS011;22842;48.610;11.612;2022-11-23T11:26:21;5.70;;;2.70;;
36925;SDS011;22842;48.610;11.612;2022-11-23T11:28:50;5.40;;;2.72;;
36925;SDS011;22842;48.610;11.612;2022-11-23T11:36:44;7.65;;;2.63;;
36925;SDS011;22842;48.610;11.612;2022-11-23T11:39:16;6.43;;;2.33;;
36925;SDS011;22842;48.610;11.612;2022-11-23T11:41:45;5.97;;;2.60;;
36925;SDS011;22842;48.610;11.612;2022-11-23T11:44:20;3.55;;;1.73;;
36925;SDS011;22842;48.610;11.612;2022-11-23T11:46:53;3.33;;;1.63;;
36925;SDS011;22842;48.610;11.612;2022-11-23T11:49:34;6.38;;;1.67;;
36925;SDS011;22842;48.610;11.612;2022-11-23T11:52:11;3.33;;;1.67;;
36925;SDS011;22842;48.610;11.612;2022-11-23T11:54:50;5.40;;;2.55;;
36925;SDS011;22842;48.610;11.612;2022-11-23T11:57:20;6.93;;;2.20;;
36925;SDS011;22842;48.610;11.612;2022-11-23T11:59:49;5.78;;;2.33;;
36925;SDS011;22842;48.610;11.612;2022-11-23T12:02:19;5.60;;;2.03;;
36925;SDS011;22842;48.610;11.612;2022-11-23T12:07:37;5.47;;;2.10;;
36925;SDS011;22842;48.610;11.612;2022-11-23T12:12:39;5.07;;;1.80;;
36925;SDS011;22842;48.610;11.612;2022-11-23T12:15:17;6.13;;;2.17;;
36925;SDS011;22842;48.610;11.612;2022-11-23T12:20:56;6.13;;;2.00;;
36925;SDS011;22842;48.610;11.612;2022-11-23T12:26:04;2.70;;;1.63;;
36925;SDS011;22842;48.610;11.612;2022-11-23T12:36:18;7.32;;;2.20;;
36925;SDS011;22842;48.610;11.612;2022-11-23T12:38:54;5.65;;;1.92;;
36925;SDS011;22842;48.610;11.612;2022-11-23T12:41:22;4.22;;;1.88;;
36925;SDS011;22842;48.610;11.612;2022-11-23T12:47:02;4.82;;;2.08;;
36925;SDS011;22842;48.610;11.612;2022-11-23T13:00:14;5.30;;;1.67;;
36925;SDS011;22842;48.610;11.612;2022-11-23T13:04:52;4.10;;;2.30;;
36925;SDS011;22842;48.610;11.612;2022-11-23T13:07:35;5.25;;;1.80;;
36925;SDS011;22842;48.610;11.612;2022-11-23T13:13:06;2.50;;;1.48;;
36925;SDS011;22842;48.610;11.612;2022-11-23T13:15:58;6.20;;;2.00;;
36925;SDS011;22842;48.610;11.612;2022-11-23T13:18:42;7.35;;;1.83;;
36925;SDS011;22842;48.610;11.612;2022-11-23T13:23:42;7.10;;;2.15;;
36925;SDS011;22842;48.610;11.612;2022-11-23T13:26:14;9.38;;;2.03;;
36925;SDS011;22842;48.610;11.612;2022-11-23T13:28:42;5.03;;;1.67;;
36925;SDS011;22842;48.610;11.612;2022-11-23T13:33:43;4.40;;;1.33;;
36925;SDS011;22842;48.610;11.612;2022-11-23T13:36:12;4.88;;;1.75;;
36925;SDS011;22842;48.610;11.612;2022-11-23T13:38:45;3.75;;;1.58;;
36925;SDS011;22842;48.610;11.612;2022-11-23T13:44:42;5.65;;;1.48;;
36925;SDS011;22842;48.610;11.612;2022-11-23T13:46:56;5.45;;;1.55;;
36925;SDS011;22842;48.610;11.612;2022-11-23T13:57:40;5.95;;;1.65;;
36925;SDS011;22842;48.610;11.612;2022-11-23T14:03:42;3.13;;;1.50;;
36925;SDS011;22842;48.610;11.612;2022-11-23T14:08:16;3.05;;;1.40;;
36925;SDS011;22842;48.610;11.612;2022-11-23T14:10:45;7.18;;;2.15;;
36925;SDS011;22842;48.610;11.612;2022-11-23T14:13:15;3.33;;;1.50;;
36925;SDS011;22842;48.610;11.612;2022-11-23T14:15:45;5.32;;;1.52;;
36925;SDS011;22842;48.610;11.612;2022-11-23T14:21:11;5.38;;;1.75;;
36925;SDS011;22842;48.610;11.612;2022-11-23T14:34:38;2.88;;;1.50;;
36925;SDS011;22842;48.610;11.612;2022-11-23T14:42:10;24.25;;;12.93;;
36925;SDS011;22842;48.610;11.612;2022-11-23T14:44:39;15.73;;;6.90;;
36925;SDS011;22842;48.610;11.612;2022-11-23T14:47:09;7.22;;;3.38;;
36925;SDS011;22842;48.610;11.612;2022-11-23T14:49:46;7.35;;;2.40;;
36925;SDS011;22842;48.610;11.612;2022-11-23T14:52:15;3.92;;;2.08;;
36925;SDS011;22842;48.610;11.612;2022-11-23T14:54:48;8.18;;;2.10;;
36925;SDS011;22842;48.610;11.612;2022-11-23T14:57:16;6.85;;;2.80;;
36925;SDS011;22842;48.610;11.612;2022-11-23T14:59:46;4.45;;;2.28;;
36925;SDS011;22842;48.610;11.612;2022-11-23T15:02:29;4.50;;;2.35;;
36925;SDS011;22842;48.610;11.612;2022-11-23T15:05:02;7.47;;;2.60;;
36925;SDS011;22842;48.610;11.612;2022-11-23T15:12:51;4.72;;;2.22;;
36925;SDS011;22842;48.610;11.612;2022-11-23T15:15:23;15.45;;;2.72;;
36925;SDS011;22842;48.610;11.612;2022-11-23T15:17:57;6.35;;;2.15;;
36925;SDS011;22842;48.610;11.612;2022-11-23T15:20:30;10.88;;;2.90;;
36925;SDS011;22842;48.610;11.612;2022-11-23T15:23:02;6.93;;;2.58;;
36925;SDS011;22842;48.610;11.612;2022-11-23T15:25:29;6.93;;;2.95;;
36925;SDS011;22842;48.610;11.612;2022-11-23T15:27:58;5.63;;;3.20;;
36925;SDS011;22842;48.610;11.612;2022-11-23T15:30:26;7.93;;;3.70;;
36925;SDS011;22842;48.610;11.612;2022-11-23T15:33:01;12.70;;;4.28;;
36925;SDS011;22842;48.610;11.612;2022-11-23T15:35:34;7.80;;;4.07;;
36925;SDS011;22842;48.610;11.612;2022-11-23T15:38:03;12.23;;;3.47;;
36925;SDS011;22842;48.610;11.612;2022-11-23T15:40:40;8.90;;;3.60;;
36925;SDS011;22842;48.610;11.612;2022-11-23T15:43:16;8.35;;;4.20;;
36925;SDS011;22842;48.610;11.612;2022-11-23T15:48:12;11.43;;;4.90;;
36925;SDS011;22842;48.610;11.612;2022-11-23T15:50:53;9.75;;;4.75;;
36925;SDS011;22842;48.610;11.612;2022-11-23T15:53:23;7.90;;;4.75;;
36925;SDS011;22842;48.610;11.612;2022-11-23T15:55:52;10.40;;;4.40;;
36925;SDS011;22842;48.610;11.612;2022-11-23T15:58:20;10.63;;;5.22;;
36925;SDS011;22842;48.610;11.612;2022-11-23T16:00:55;9.85;;;4.47;;
36925;SDS011;22842;48.610;11.612;2022-11-23T16:03:33;15.37;;;5.33;;
36925;SDS011;22842;48.610;11.612;2022-11-23T16:06:12;9.80;;;5.15;;
36925;SDS011;22842;48.610;11.612;2022-11-23T16:08:40;11.60;;;4.90;;
36925;SDS011;22842;48.610;11.612;2022-11-23T16:14:11;15.65;;;7.13;;
36925;SDS011;22842;48.610;11.612;2022-11-23T16:16:39;39.38;;;13.02;;
36925;SDS011;22842;48.610;11.612;2022-11-23T16:19:18;22.17;;;10.50;;
36925;SDS011;22842;48.610;11.612;2022-11-23T16:21:47;18.27;;;9.10;;
36925;SDS011;22842;48.610;11.612;2022-11-23T16:24:18;13.93;;;7.03;;
36925;SDS011;22842;48.610;11.612;2022-11-23T16:26:46;12.38;;;5.30;;
36925;SDS011;22842;48.610;11.612;2022-11-23T16:29:32;16.27;;;6.38;;
36925;SDS011;22842;48.610;11.612;2022-11-23T16:32:01;12.40;;;4.55;;
36925;SDS011;22842;48.610;11.612;2022-11-23T16:34:32;8.77;;;4.68;;
36925;SDS011;22842;48.610;11.612;2022-11-23T16:37:01;15.27;;;4.93;;
36925;SDS011;22842;48.610;11.612;2022-11-23T16:39:31;10.32;;;5.00;;
36925;SDS011;22842;48.610;11.612;2022-11-23T16:41:59;12.35;;;4.63;;
36925;SDS011;22842;48.610;11.612;2022-11-23T16:44:28;10.73;;;4.45;;
36925;SDS011;22842;48.610;11.612;2022-11-23T16:47:09;10.35;;;4.55;;
36925;SDS011;22842;48.610;11.612;2022-11-23T16:49:40;17.77;;;5.05;;
36925;SDS011;22842;48.610;11.612;2022-11-23T16:52:08;12.90;;;4.80;;
36925;SDS011;22842;48.610;11.612;2022-11-23T16:54:37;11.32;;;5.18;;
36925;SDS011;22842;48.610;11.612;2022-11-23T16:57:05;10.32;;;6.00;;